createdAt,value
2017-04-22T00:02:42.738Z,0
2017-04-22T00:03:51.640Z,0
2017-04-22T00:05:00.562Z,0
2017-04-22T00:06:10.110Z,0
2017-04-22T00:07:19.010Z,0
2017-04-22T00:08:28.229Z,0
2017-04-22T00:09:37.450Z,0
2017-04-22T00:10:46.348Z,0
2017-04-22T00:11:54.930Z,0
2017-04-22T00:13:03.562Z,0
2017-04-22T00:14:12.491Z,0
2017-04-22T00:15:21.398Z,0
2017-04-22T00:16:30.006Z,0
2017-04-22T00:17:38.687Z,0
2017-04-22T00:18:47.926Z,0
2017-04-22T00:19:57.469Z,0
2017-04-22T00:21:06.427Z,0
2017-04-22T00:22:15.334Z,0
2017-04-22T00:23:24.232Z,0
2017-04-22T00:24:33.440Z,0
2017-04-22T00:25:42.037Z,0
2017-04-22T00:26:51.605Z,0
2017-04-22T00:28:00.520Z,0
2017-04-22T00:29:10.054Z,0
2017-04-22T00:30:19.318Z,0
2017-04-22T00:31:28.252Z,0
2017-04-22T00:32:37.156Z,0
2017-04-22T00:33:46.127Z,0
2017-04-22T00:34:54.813Z,0
2017-04-22T00:36:03.391Z,0
2017-04-22T00:37:12.422Z,0
2017-04-22T00:38:21.323Z,0
2017-04-22T00:39:30.545Z,0
2017-04-22T00:40:39.769Z,0
2017-04-22T00:41:48.672Z,0
2017-04-22T00:42:58.209Z,0
2017-04-22T00:44:08.220Z,0
2017-04-22T00:45:16.845Z,0
2017-04-22T00:46:26.710Z,0
2017-04-22T00:47:36.299Z,0
2017-04-22T00:48:45.235Z,0
2017-04-22T00:49:54.153Z,0
2017-04-22T00:51:03.375Z,0
2017-04-22T00:52:12.991Z,0
2017-04-22T00:53:22.202Z,0
2017-04-22T00:54:31.108Z,0
2017-04-22T00:55:40.364Z,0
2017-04-22T00:56:49.921Z,0
2017-04-22T00:57:59.138Z,0
2017-04-22T00:59:07.735Z,0
2017-04-22T01:00:17.230Z,0
2017-04-22T01:01:26.462Z,0
2017-04-22T01:02:35.680Z,0
2017-04-22T01:03:44.592Z,0
2017-04-22T01:04:53.814Z,0
2017-04-22T01:06:03.340Z,0
2017-04-22T01:07:11.933Z,0
2017-04-22T01:08:21.404Z,0
2017-04-22T01:09:30.622Z,0
2017-04-22T01:10:39.888Z,0
2017-04-22T01:11:48.800Z,0
2017-04-22T01:12:57.712Z,0
2017-04-22T01:14:07.251Z,0
2017-04-22T01:15:16.665Z,0
2017-04-22T01:16:26.173Z,0
2017-04-22T01:17:35.414Z,0
2017-04-22T01:18:44.773Z,0
2017-04-22T01:19:53.703Z,0
2017-04-22T01:21:03.124Z,0
2017-04-22T01:22:12.059Z,0
2017-04-22T01:23:21.376Z,0
2017-04-22T01:24:30.610Z,0
2017-04-22T01:25:39.196Z,0
2017-04-22T01:26:48.637Z,0
2017-04-22T01:27:57.216Z,0
2017-04-22T01:29:06.116Z,0
2017-04-22T01:30:14.758Z,0
2017-04-22T01:31:23.985Z,0
2017-04-22T01:32:33.199Z,0
2017-04-22T01:33:42.425Z,0
2017-04-22T01:34:51.372Z,0
2017-04-22T01:36:00.592Z,0
2017-04-22T01:37:09.172Z,0
2017-04-22T01:38:18.396Z,0
2017-04-22T01:39:26.983Z,0
2017-04-22T01:40:36.205Z,0
2017-04-22T01:41:44.784Z,0
2017-04-22T01:42:53.675Z,0
2017-04-22T01:44:02.895Z,0
2017-04-22T01:45:11.795Z,0
2017-04-22T01:46:21.255Z,0
2017-04-22T01:47:30.485Z,0
2017-04-22T01:48:39.389Z,0
2017-04-22T01:49:48.604Z,0
2017-04-22T01:50:57.503Z,0
2017-04-22T01:52:07.059Z,0
2017-04-22T01:53:15.953Z,0
2017-04-22T01:54:24.855Z,0
2017-04-22T01:55:33.756Z,0
2017-04-22T01:56:42.442Z,0
2017-04-22T01:57:51.337Z,0
2017-04-22T01:58:59.925Z,0
2017-04-22T02:00:08.858Z,0
2017-04-22T02:01:17.801Z,0
2017-04-22T02:02:26.386Z,0
2017-04-22T02:03:36.007Z,0
2017-04-22T02:04:45.361Z,0
2017-04-22T02:05:54.574Z,0
2017-04-22T02:07:04.106Z,0
2017-04-22T02:08:13.332Z,0
2017-04-22T02:09:22.251Z,0
2017-04-22T02:10:31.481Z,0
2017-04-22T02:11:40.374Z,0
2017-04-22T02:12:49.273Z,0
2017-04-22T02:13:57.858Z,0
2017-04-22T02:15:06.767Z,0
2017-04-22T02:16:16.072Z,0
2017-04-22T02:17:25.063Z,0
2017-04-22T02:18:33.961Z,0
2017-04-22T02:19:42.861Z,0
2017-04-22T02:20:51.764Z,0
2017-04-22T02:22:00.747Z,0
2017-04-22T02:23:09.641Z,0
2017-04-22T02:24:19.480Z,0
2017-04-22T02:25:29.056Z,0
2017-04-22T02:26:38.590Z,0
2017-04-22T02:27:47.501Z,0
2017-04-22T02:28:56.085Z,0
2017-04-22T02:30:05.069Z,0
2017-04-22T02:31:14.283Z,0
2017-04-22T02:32:23.244Z,0
2017-04-22T02:33:32.471Z,0
2017-04-22T02:34:42.004Z,0
2017-04-22T02:35:51.582Z,0
2017-04-22T02:37:00.245Z,0
2017-04-22T02:38:09.509Z,0
2017-04-22T02:39:18.481Z,0
2017-04-22T02:40:27.707Z,0
2017-04-22T02:41:36.378Z,0
2017-04-22T02:42:45.601Z,0
2017-04-22T02:43:54.526Z,0
2017-04-22T02:45:03.744Z,0
2017-04-22T02:46:12.646Z,0
2017-04-22T02:47:21.685Z,0
2017-04-22T02:48:30.583Z,0
2017-04-22T02:49:39.665Z,0
2017-04-22T02:50:48.615Z,0
2017-04-22T02:51:57.567Z,0
2017-04-22T02:53:06.467Z,0
2017-04-22T02:54:15.417Z,0
2017-04-22T02:55:24.360Z,0
2017-04-22T02:56:33.263Z,0
2017-04-22T02:57:42.170Z,0
2017-04-22T02:58:51.210Z,0
2017-04-22T03:00:00.515Z,0
2017-04-22T03:01:09.414Z,0
2017-04-22T03:02:18.321Z,0
2017-04-22T03:03:27.211Z,0
2017-04-22T03:04:36.439Z,0
2017-04-22T03:05:45.977Z,0
2017-04-22T03:06:55.526Z,0
2017-04-22T03:08:04.427Z,0
2017-04-22T03:09:13.302Z,0
2017-04-22T03:10:22.202Z,0
2017-04-22T03:11:31.105Z,0
2017-04-22T03:12:40.321Z,0
2017-04-22T03:13:49.223Z,0
2017-04-22T03:14:58.453Z,0
2017-04-22T03:16:07.360Z,0
2017-04-22T03:17:16.256Z,0
2017-04-22T03:18:25.479Z,0
2017-04-22T03:19:34.697Z,0
2017-04-22T03:20:43.601Z,0
2017-04-22T03:21:52.818Z,0
2017-04-22T03:23:01.714Z,0
2017-04-22T03:24:10.610Z,0
2017-04-22T03:25:19.521Z,0
2017-04-22T03:26:29.066Z,0
2017-04-22T03:27:38.285Z,0
2017-04-22T03:28:47.562Z,0
2017-04-22T03:29:56.779Z,0
2017-04-22T03:31:05.681Z,0
2017-04-22T03:32:14.780Z,0
2017-04-22T03:33:23.793Z,0
2017-04-22T03:34:32.685Z,0
2017-04-22T03:35:41.262Z,0
2017-04-22T03:36:50.156Z,0
2017-04-22T03:37:59.054Z,0
2017-04-22T03:39:11.609Z,0
2017-04-22T03:40:20.510Z,0
2017-04-22T03:41:29.424Z,0
2017-04-22T03:42:38.494Z,0
2017-04-22T03:43:47.231Z,0
2017-04-22T03:44:56.901Z,0
2017-04-22T03:46:06.122Z,0
2017-04-22T03:47:14.933Z,0
2017-04-22T03:48:23.828Z,0
2017-04-22T03:49:33.050Z,0
2017-04-22T03:50:42.583Z,0
2017-04-22T03:51:51.483Z,0
2017-04-22T03:53:00.089Z,0
2017-04-22T03:54:08.987Z,0
2017-04-22T03:55:18.200Z,4
2017-04-22T03:56:27.092Z,4
2017-04-22T03:57:35.989Z,0
2017-04-22T03:58:45.642Z,4
2017-04-22T03:59:54.575Z,4
2017-04-22T04:01:03.786Z,4
2017-04-22T04:02:12.695Z,4
2017-04-22T04:03:21.913Z,4
2017-04-22T04:04:30.819Z,4
2017-04-22T04:05:40.043Z,8
2017-04-22T04:06:48.952Z,12
2017-04-22T04:07:58.486Z,12
2017-04-22T04:09:07.074Z,48
2017-04-22T04:10:15.968Z,64
2017-04-22T04:11:24.567Z,68
2017-04-22T04:12:33.883Z,76
2017-04-22T04:13:42.463Z,80
2017-04-22T04:14:51.998Z,88
2017-04-22T04:16:00.582Z,92
2017-04-22T04:17:10.861Z,92
2017-04-22T04:18:19.763Z,100
2017-04-22T04:19:28.985Z,112
2017-04-22T04:20:37.618Z,120
2017-04-22T04:21:46.234Z,128
2017-04-22T04:22:55.157Z,136
2017-04-22T04:24:04.122Z,140
2017-04-22T04:25:13.406Z,144
2017-04-22T04:26:22.627Z,152
2017-04-22T04:27:31.537Z,156
2017-04-22T04:28:40.752Z,140
2017-04-22T04:29:49.980Z,136
2017-04-22T04:30:58.882Z,156
2017-04-22T04:32:07.457Z,172
2017-04-22T04:33:16.361Z,196
2017-04-22T04:34:24.945Z,228
2017-04-22T04:35:33.531Z,248
2017-04-22T04:36:43.069Z,276
2017-04-22T04:37:52.288Z,300
2017-04-22T04:39:00.873Z,288
2017-04-22T04:40:10.403Z,288
2017-04-22T04:41:19.624Z,296
2017-04-22T04:42:28.202Z,320
2017-04-22T04:43:37.100Z,332
2017-04-22T04:44:45.816Z,344
2017-04-22T04:45:55.183Z,372
2017-04-22T04:47:04.407Z,412
2017-04-22T04:48:13.943Z,420
2017-04-22T04:49:22.849Z,416
2017-04-22T04:50:32.068Z,404
2017-04-22T04:51:40.974Z,364
2017-04-22T04:52:49.557Z,388
2017-04-22T04:53:58.135Z,408
2017-04-22T04:55:07.028Z,448
2017-04-22T04:56:15.625Z,512
2017-04-22T04:57:24.528Z,648
2017-04-22T04:58:33.740Z,772
2017-04-22T04:59:43.595Z,848
2017-04-22T05:00:52.177Z,860
2017-04-22T05:02:01.073Z,860
2017-04-22T05:03:10.289Z,848
2017-04-22T05:04:19.628Z,852
2017-04-22T05:05:28.203Z,888
2017-04-22T05:06:37.741Z,964
2017-04-22T05:07:46.956Z,1088
2017-04-22T05:08:56.190Z,1196
2017-04-22T05:10:06.041Z,1220
2017-04-22T05:11:15.573Z,1208
2017-04-22T05:12:24.793Z,1208
2017-04-22T05:13:34.327Z,1280
2017-04-22T05:14:43.295Z,1300
2017-04-22T05:15:52.108Z,1328
2017-04-22T05:17:01.015Z,1352
2017-04-22T05:18:10.226Z,1300
2017-04-22T05:19:19.120Z,1280
2017-04-22T05:20:27.701Z,1328
2017-04-22T05:21:37.551Z,1388
2017-04-22T05:22:46.771Z,1464
2017-04-22T05:23:55.772Z,1616
2017-04-22T05:25:04.666Z,1824
2017-04-22T05:26:13.880Z,1896
2017-04-22T05:27:22.782Z,1860
2017-04-22T05:28:31.681Z,1804
2017-04-22T05:29:40.705Z,1812
2017-04-22T05:30:49.606Z,1964
2017-04-22T05:31:58.824Z,2244
2017-04-22T05:33:07.794Z,3028
2017-04-22T05:34:17.340Z,3696
2017-04-22T05:35:26.244Z,3860
2017-04-22T05:36:35.145Z,3804
2017-04-22T05:37:44.040Z,3640
2017-04-22T05:38:52.630Z,3372
2017-04-22T05:40:01.544Z,3320
2017-04-22T05:41:10.764Z,2928
2017-04-22T05:42:19.659Z,2640
2017-04-22T05:43:28.876Z,2640
2017-04-22T05:44:38.504Z,2816
2017-04-22T05:45:47.084Z,2996
2017-04-22T05:46:56.615Z,3180
2017-04-22T05:48:06.153Z,3140
2017-04-22T05:49:14.734Z,3044
2017-04-22T05:50:23.959Z,3248
2017-04-22T05:51:32.865Z,3336
2017-04-22T05:52:42.080Z,3288
2017-04-22T05:53:51.614Z,3244
2017-04-22T05:55:00.697Z,3080
2017-04-22T05:56:09.606Z,3068
2017-04-22T05:57:18.518Z,3352
2017-04-22T05:58:28.065Z,3984
2017-04-22T05:59:37.279Z,4652
2017-04-22T06:00:47.137Z,4644
2017-04-22T06:01:56.348Z,4476
2017-04-22T06:03:05.253Z,4976
2017-04-22T06:04:14.157Z,5576
2017-04-22T06:05:23.375Z,5572
2017-04-22T06:06:32.291Z,5688
2017-04-22T06:07:41.195Z,5580
2017-04-22T06:08:50.150Z,5128
2017-04-22T06:09:59.046Z,4928
2017-04-22T06:11:08.576Z,5076
2017-04-22T06:12:17.486Z,5104
2017-04-22T06:13:27.027Z,5348
2017-04-22T06:14:35.938Z,6332
2017-04-22T06:15:45.266Z,6648
2017-04-22T06:16:53.850Z,6760
2017-04-22T06:18:03.086Z,6892
2017-04-22T06:19:12.300Z,6504
2017-04-22T06:20:21.708Z,6120
2017-04-22T06:21:30.924Z,6948
2017-04-22T06:22:40.462Z,7152
2017-04-22T06:23:49.369Z,7512
2017-04-22T06:24:58.269Z,7540
2017-04-22T06:26:07.181Z,7136
2017-04-22T06:27:16.083Z,7108
2017-04-22T06:28:24.667Z,7124
2017-04-22T06:29:34.798Z,6832
2017-04-22T06:30:43.501Z,7292
2017-04-22T06:31:53.043Z,7780
2017-04-22T06:33:02.577Z,8176
2017-04-22T06:34:12.051Z,8144
2017-04-22T06:35:20.952Z,8084
2017-04-22T06:36:29.855Z,7816
2017-04-22T06:37:39.087Z,6848
2017-04-22T06:38:47.669Z,5828
2017-04-22T06:39:56.259Z,5536
2017-04-22T06:41:04.968Z,6184
2017-04-22T06:42:14.239Z,6456
2017-04-22T06:43:23.825Z,5184
2017-04-22T06:44:33.365Z,5080
2017-04-22T06:45:42.200Z,5940
2017-04-22T06:46:51.421Z,6036
2017-04-22T06:48:00.640Z,7240
2017-04-22T06:49:09.859Z,7516
2017-04-22T06:50:19.089Z,7092
2017-04-22T06:51:27.989Z,8024
2017-04-22T06:52:36.899Z,8376
2017-04-22T06:53:46.117Z,10476
2017-04-22T06:54:55.346Z,8536
2017-04-22T06:56:04.573Z,7692
2017-04-22T06:57:13.469Z,8300
2017-04-22T06:58:23.320Z,9712
2017-04-22T06:59:32.541Z,8792
2017-04-22T07:00:41.774Z,9128
2017-04-22T07:01:50.677Z,9852
2017-04-22T07:02:59.580Z,8480
2017-04-22T07:04:08.815Z,8424
2017-04-22T07:05:17.406Z,7776
2017-04-22T07:06:25.999Z,8576
2017-04-22T07:07:34.579Z,10632
2017-04-22T07:08:43.802Z,8928
2017-04-22T07:09:53.034Z,8448
2017-04-22T07:11:02.261Z,8460
2017-04-22T07:12:11.795Z,8704
2017-04-22T07:13:20.710Z,8972
2017-04-22T07:14:29.932Z,8416
2017-04-22T07:15:39.473Z,7452
2017-04-22T07:16:49.017Z,6024
2017-04-22T07:17:58.763Z,5080
2017-04-22T07:19:08.015Z,5064
2017-04-22T07:20:16.938Z,5268
2017-04-22T07:21:25.834Z,5732
2017-04-22T07:22:35.050Z,6760
2017-04-22T07:23:44.281Z,7452
2017-04-22T07:24:52.879Z,6752
2017-04-22T07:26:02.111Z,5024
2017-04-22T07:27:11.269Z,4812
2017-04-22T07:28:20.487Z,6348
2017-04-22T07:29:29.716Z,9916
2017-04-22T07:30:39.559Z,12472
2017-04-22T07:31:48.467Z,12668
2017-04-22T07:32:58.333Z,11372
2017-04-22T07:34:07.243Z,11684
2017-04-22T07:35:16.791Z,11696
2017-04-22T07:36:25.381Z,12688
2017-04-22T07:37:34.291Z,11984
2017-04-22T07:38:43.721Z,10996
2017-04-22T07:39:52.368Z,9628
2017-04-22T07:41:01.438Z,9336
2017-04-22T07:42:10.341Z,9088
2017-04-22T07:43:19.335Z,7032
2017-04-22T07:44:28.629Z,7940
2017-04-22T07:45:37.549Z,10044
2017-04-22T07:46:46.448Z,11944
2017-04-22T07:47:55.350Z,9120
2017-04-22T07:49:04.254Z,7320
2017-04-22T07:50:12.852Z,5132
2017-04-22T07:51:21.759Z,5084
2017-04-22T07:52:30.344Z,6452
2017-04-22T07:53:39.566Z,8160
2017-04-22T07:54:48.465Z,6240
2017-04-22T07:55:57.362Z,6372
2017-04-22T07:57:06.260Z,7980
2017-04-22T07:58:14.851Z,7604
2017-04-22T07:59:23.765Z,7624
2017-04-22T08:00:32.979Z,10284
2017-04-22T08:01:41.880Z,13152
2017-04-22T08:02:50.790Z,8956
2017-04-22T08:04:00.018Z,10344
2017-04-22T08:05:09.241Z,8712
2017-04-22T08:06:17.826Z,10736
2017-04-22T08:07:27.055Z,8232
2017-04-22T08:08:36.268Z,10140
2017-04-22T08:09:45.178Z,7320
2017-04-22T08:10:53.752Z,8924
2017-04-22T08:12:02.986Z,9124
2017-04-22T08:13:12.217Z,8980
2017-04-22T08:14:21.436Z,10140
2017-04-22T08:15:30.342Z,10276
2017-04-22T08:16:39.251Z,9228
2017-04-22T08:17:48.168Z,8868
2017-04-22T08:18:57.405Z,11036
2017-04-22T08:20:07.277Z,10952
2017-04-22T08:21:16.510Z,11768
2017-04-22T08:22:25.744Z,10928
2017-04-22T08:23:35.292Z,8556
2017-04-22T08:24:44.528Z,7248
2017-04-22T08:25:53.755Z,7460
2017-04-22T08:27:02.690Z,8628
2017-04-22T08:28:11.915Z,10188
2017-04-22T08:29:21.143Z,10464
2017-04-22T08:30:29.741Z,10688
2017-04-22T08:31:38.331Z,11380
2017-04-22T08:32:48.018Z,11288
2017-04-22T08:33:57.563Z,10076
2017-04-22T08:35:06.157Z,10212
2017-04-22T08:36:15.705Z,10928
2017-04-22T08:37:24.931Z,9324
2017-04-22T08:38:33.664Z,8996
2017-04-22T08:39:42.340Z,12196
2017-04-22T08:40:51.450Z,13728
2017-04-22T08:42:00.481Z,11408
2017-04-22T08:43:09.396Z,14004
2017-04-22T08:44:18.367Z,10424
2017-04-22T08:45:27.035Z,4440
2017-04-22T08:46:36.280Z,2700
2017-04-22T08:47:45.195Z,2004
2017-04-22T08:48:53.803Z,2056
2017-04-22T08:50:03.053Z,2588
2017-04-22T08:51:12.285Z,3156
2017-04-22T08:52:21.976Z,3908
2017-04-22T08:53:30.906Z,4624
2017-04-22T08:54:39.869Z,5248
2017-04-22T08:55:48.682Z,6692
2017-04-22T08:56:57.615Z,8280
2017-04-22T08:58:06.319Z,9816
2017-04-22T08:59:15.599Z,11184
2017-04-22T09:00:24.845Z,12172
2017-04-22T09:01:34.123Z,11704
2017-04-22T09:02:43.410Z,11168
2017-04-22T09:03:52.651Z,11272
2017-04-22T09:05:02.534Z,11224
2017-04-22T09:06:11.134Z,12212
2017-04-22T09:07:20.362Z,12660
2017-04-22T09:08:29.646Z,12420
2017-04-22T09:09:39.232Z,12528
2017-04-22T09:10:47.889Z,10560
2017-04-22T09:11:57.450Z,8784
2017-04-22T09:13:06.766Z,7564
2017-04-22T09:14:15.674Z,6580
2017-04-22T09:15:24.619Z,6080
2017-04-22T09:16:33.543Z,5500
2017-04-22T09:17:42.784Z,5140
2017-04-22T09:18:52.037Z,5664
2017-04-22T09:20:00.949Z,5416
2017-04-22T09:21:10.177Z,5232
2017-04-22T09:22:19.421Z,5168
2017-04-22T09:23:32.274Z,5172
2017-04-22T09:24:41.565Z,5352
2017-04-22T09:25:50.483Z,6076
2017-04-22T09:26:59.721Z,7540
2017-04-22T09:28:08.674Z,10212
2017-04-22T09:29:17.613Z,14268
2017-04-22T09:30:27.914Z,17184
2017-04-22T09:31:37.631Z,15512
2017-04-22T09:32:46.948Z,11012
2017-04-22T09:33:56.807Z,7980
2017-04-22T09:35:05.716Z,10392
2017-04-22T09:36:14.947Z,10700
2017-04-22T09:37:24.264Z,12168
2017-04-22T09:38:33.180Z,13856
2017-04-22T09:39:41.769Z,13348
2017-04-22T09:40:50.996Z,13116
2017-04-22T09:41:59.908Z,13472
2017-04-22T09:43:08.822Z,11768
2017-04-22T09:44:17.727Z,10304
2017-04-22T09:45:27.007Z,9300
2017-04-22T09:46:35.913Z,8452
2017-04-22T09:47:45.124Z,8116
2017-04-22T09:48:53.722Z,9080
2017-04-22T09:50:02.948Z,8656
2017-04-22T09:51:13.261Z,7056
2017-04-22T09:52:22.487Z,6376
2017-04-22T09:53:31.162Z,6120
2017-04-22T09:54:39.817Z,6148
2017-04-22T09:55:49.398Z,5844
2017-04-22T09:56:58.301Z,5632
2017-04-22T09:58:07.209Z,6760
2017-04-22T09:59:16.435Z,6580
2017-04-22T10:00:25.354Z,7080
2017-04-22T10:01:34.572Z,8580
2017-04-22T10:02:43.793Z,10396
2017-04-22T10:03:52.695Z,10512
2017-04-22T10:05:01.273Z,9028
2017-04-22T10:06:10.464Z,6716
2017-04-22T10:07:20.000Z,5012
2017-04-22T10:08:28.915Z,4440
2017-04-22T10:09:38.132Z,4460
2017-04-22T10:10:47.570Z,5228
2017-04-22T10:11:57.138Z,5368
2017-04-22T10:13:06.470Z,5352
2017-04-22T10:14:15.285Z,5392
2017-04-22T10:15:24.247Z,5472
2017-04-22T10:16:33.165Z,5648
2017-04-22T10:17:42.507Z,5944
2017-04-22T10:18:51.413Z,7256
2017-04-22T10:20:00.373Z,11196
2017-04-22T10:21:09.205Z,13592
2017-04-22T10:22:18.431Z,12328
2017-04-22T10:23:27.012Z,17024
2017-04-22T10:24:36.441Z,14172
2017-04-22T10:25:45.886Z,11776
2017-04-22T10:26:54.505Z,14800
2017-04-22T10:28:03.481Z,14432
2017-04-22T10:29:12.898Z,15080
2017-04-22T10:30:22.335Z,14596
2017-04-22T10:31:31.336Z,15892
2017-04-22T10:32:40.374Z,13632
2017-04-22T10:33:49.300Z,13012
2017-04-22T10:34:58.351Z,12628
2017-04-22T10:36:07.303Z,13916
2017-04-22T10:37:16.867Z,15096
2017-04-22T10:38:26.086Z,15524
2017-04-22T10:39:34.669Z,14600
2017-04-22T10:40:43.898Z,13716
2017-04-22T10:41:53.117Z,13192
2017-04-22T10:43:01.759Z,11628
2017-04-22T10:44:11.325Z,9960
2017-04-22T10:45:20.557Z,8960
2017-04-22T10:46:29.786Z,8808
2017-04-22T10:47:38.738Z,11624
2017-04-22T10:48:48.299Z,14316
2017-04-22T10:49:57.862Z,15776
2017-04-22T10:51:07.092Z,14472
2017-04-22T10:52:16.546Z,11716
2017-04-22T10:53:25.486Z,10496
2017-04-22T10:54:34.396Z,8692
2017-04-22T10:55:43.319Z,7108
2017-04-22T10:56:51.911Z,5988
2017-04-22T10:58:00.813Z,6880
2017-04-22T10:59:09.396Z,9252
2017-04-22T11:00:17.994Z,11836
2017-04-22T11:01:27.535Z,13132
2017-04-22T11:02:36.442Z,10240
2017-04-22T11:03:45.362Z,7592
2017-04-22T11:04:54.594Z,5896
2017-04-22T11:06:03.510Z,5212
2017-04-22T11:07:12.552Z,5492
2017-04-22T11:08:21.784Z,4848
2017-04-22T11:09:30.699Z,4720
2017-04-22T11:10:39.932Z,4424
2017-04-22T11:11:49.158Z,4568
2017-04-22T11:12:58.394Z,4604
2017-04-22T11:14:07.993Z,4540
2017-04-22T11:15:16.908Z,4700
2017-04-22T11:16:25.498Z,4896
2017-04-22T11:17:34.400Z,5136
2017-04-22T11:18:43.634Z,6592
2017-04-22T11:19:52.599Z,8800
2017-04-22T11:21:02.026Z,10992
2017-04-22T11:22:10.633Z,11804
2017-04-22T11:23:19.234Z,11896
2017-04-22T11:24:28.143Z,12316
2017-04-22T11:25:36.763Z,12660
2017-04-22T11:26:45.689Z,12760
2017-04-22T11:27:54.915Z,12472
2017-04-22T11:29:04.050Z,11876
2017-04-22T11:30:13.587Z,10312
2017-04-22T11:31:23.002Z,8452
2017-04-22T11:32:31.679Z,8044
2017-04-22T11:33:40.595Z,8384
2017-04-22T11:34:49.242Z,8824
2017-04-22T11:35:58.610Z,9008
2017-04-22T11:37:08.319Z,8972
2017-04-22T11:38:17.760Z,9164
2017-04-22T11:39:26.382Z,9080
2017-04-22T11:40:35.478Z,9152
2017-04-22T11:41:44.763Z,9108
2017-04-22T11:42:53.388Z,9856
2017-04-22T11:44:02.444Z,11068
2017-04-22T11:45:12.510Z,12096
2017-04-22T11:46:21.849Z,12376
2017-04-22T11:47:31.080Z,10352
2017-04-22T11:48:39.688Z,8916
2017-04-22T11:49:48.291Z,9204
2017-04-22T11:50:57.516Z,9360
2017-04-22T11:52:07.074Z,9272
2017-04-22T11:53:16.304Z,9204
2017-04-22T11:54:25.979Z,9228
2017-04-22T11:55:34.886Z,10436
2017-04-22T11:56:43.630Z,11396
2017-04-22T11:57:52.554Z,12656
2017-04-22T11:59:01.140Z,13052
2017-04-22T12:00:10.044Z,14456
2017-04-22T12:01:19.633Z,14712
2017-04-22T12:02:28.910Z,12748
2017-04-22T12:03:37.520Z,9504
2017-04-22T12:04:46.745Z,7628
2017-04-22T12:05:55.993Z,6388
2017-04-22T12:07:04.582Z,6276
2017-04-22T12:08:13.804Z,4920
2017-04-22T12:09:23.028Z,5316
2017-04-22T12:10:32.256Z,5536
2017-04-22T12:11:41.173Z,5516
2017-04-22T12:12:50.294Z,5532
2017-04-22T12:13:59.202Z,5280
2017-04-22T12:15:07.801Z,5400
2017-04-22T12:16:17.039Z,5700
2017-04-22T12:17:25.948Z,5732
2017-04-22T12:18:34.543Z,4816
2017-04-22T12:19:43.467Z,6528
2017-04-22T12:20:52.073Z,6212
2017-04-22T12:22:00.995Z,9004
2017-04-22T12:23:09.910Z,10212
2017-04-22T12:24:18.898Z,8972
2017-04-22T12:25:28.448Z,10132
2017-04-22T12:26:37.057Z,6908
2017-04-22T12:27:46.294Z,8900
2017-04-22T12:28:55.518Z,10200
2017-04-22T12:30:05.070Z,10288
2017-04-22T12:31:13.659Z,9556
2017-04-22T12:32:22.888Z,11056
2017-04-22T12:33:31.964Z,11092
2017-04-22T12:34:40.885Z,12112
2017-04-22T12:35:49.480Z,14036
2017-04-22T12:36:59.878Z,15600
2017-04-22T12:38:09.410Z,14832
2017-04-22T12:39:18.628Z,14192
2017-04-22T12:40:27.545Z,14392
2017-04-22T12:41:36.455Z,12800
2017-04-22T12:42:45.361Z,9252
2017-04-22T12:43:55.212Z,9240
2017-04-22T12:45:04.439Z,9680
2017-04-22T12:46:13.665Z,8068
2017-04-22T12:47:22.894Z,8028
2017-04-22T12:48:31.799Z,7672
2017-04-22T12:49:40.733Z,7936
2017-04-22T12:50:50.274Z,8360
2017-04-22T12:51:58.863Z,9812
2017-04-22T12:53:08.412Z,10164
2017-04-22T12:54:17.638Z,11408
2017-04-22T12:55:26.541Z,11376
2017-04-22T12:56:35.125Z,11820
2017-04-22T12:57:44.342Z,10636
2017-04-22T12:58:53.258Z,10576
2017-04-22T13:00:02.807Z,14224
2017-04-22T13:01:11.728Z,12988
2017-04-22T13:02:20.666Z,11304
2017-04-22T13:03:30.534Z,9204
2017-04-22T13:04:39.916Z,7716
2017-04-22T13:05:48.847Z,7468
2017-04-22T13:06:57.753Z,7744
2017-04-22T13:08:06.350Z,6320
2017-04-22T13:09:15.576Z,4896
2017-04-22T13:10:25.117Z,4340
2017-04-22T13:11:34.036Z,4612
2017-04-22T13:12:43.270Z,5916
2017-04-22T13:13:52.181Z,6212
2017-04-22T13:15:01.413Z,5352
2017-04-22T13:16:10.640Z,3860
2017-04-22T13:17:19.932Z,3036
2017-04-22T13:18:28.890Z,2804
2017-04-22T13:19:38.438Z,2760
2017-04-22T13:20:47.688Z,2688
2017-04-22T13:21:56.594Z,2844
2017-04-22T13:23:05.279Z,2984
2017-04-22T13:24:14.375Z,3724
2017-04-22T13:25:23.292Z,5740
2017-04-22T13:26:33.152Z,7188
2017-04-22T13:27:42.057Z,9448
2017-04-22T13:28:50.968Z,10836
2017-04-22T13:29:59.882Z,11284
2017-04-22T13:31:08.788Z,11328
2017-04-22T13:32:18.017Z,11256
2017-04-22T13:33:26.610Z,11476
2017-04-22T13:34:36.147Z,10756
2017-04-22T13:35:45.717Z,10204
2017-04-22T13:36:55.256Z,11568
2017-04-22T13:38:04.483Z,12852
2017-04-22T13:39:13.701Z,14060
2017-04-22T13:40:22.288Z,12848
2017-04-22T13:41:31.519Z,10544
2017-04-22T13:42:40.550Z,9176
2017-04-22T13:43:50.399Z,7164
2017-04-22T13:44:59.306Z,5448
2017-04-22T13:46:08.529Z,4384
2017-04-22T13:47:17.121Z,4408
2017-04-22T13:48:26.353Z,4252
2017-04-22T13:49:35.253Z,4252
2017-04-22T13:50:44.169Z,3948
2017-04-22T13:51:53.102Z,3572
2017-04-22T13:53:02.737Z,3564
2017-04-22T13:54:11.726Z,3744
2017-04-22T13:55:20.312Z,3864
2017-04-22T13:56:29.238Z,4292
2017-04-22T13:57:38.773Z,5060
2017-04-22T13:58:48.013Z,5704
2017-04-22T13:59:57.254Z,6356
2017-04-22T14:01:06.190Z,7608
2017-04-22T14:02:15.474Z,8484
2017-04-22T14:03:24.388Z,9420
2017-04-22T14:04:33.317Z,10576
2017-04-22T14:05:41.938Z,11076
2017-04-22T14:06:50.848Z,10604
2017-04-22T14:07:59.766Z,9572
2017-04-22T14:09:09.009Z,9364
2017-04-22T14:10:17.925Z,10096
2017-04-22T14:11:26.521Z,10032
2017-04-22T14:12:36.083Z,9224
2017-04-22T14:13:45.319Z,7484
2017-04-22T14:14:54.705Z,6120
2017-04-22T14:16:03.623Z,6220
2017-04-22T14:17:12.242Z,6448
2017-04-22T14:18:21.574Z,7472
2017-04-22T14:19:30.593Z,8452
2017-04-22T14:20:39.506Z,9992
2017-04-22T14:21:48.732Z,10888
2017-04-22T14:22:58.272Z,11236
2017-04-22T14:24:08.133Z,11080
2017-04-22T14:25:17.042Z,10936
2017-04-22T14:26:25.986Z,11116
2017-04-22T14:27:34.920Z,11096
2017-04-22T14:28:43.860Z,10868
2017-04-22T14:29:53.189Z,10424
2017-04-22T14:31:02.157Z,10908
2017-04-22T14:32:10.754Z,11224
2017-04-22T14:33:19.663Z,10468
2017-04-22T14:34:28.885Z,9676
2017-04-22T14:35:37.488Z,8672
2017-04-22T14:36:46.480Z,8812
2017-04-22T14:37:55.810Z,9784
2017-04-22T14:39:04.752Z,11068
2017-04-22T14:40:13.673Z,10892
2017-04-22T14:41:22.870Z,10436
2017-04-22T14:42:32.172Z,10388
2017-04-22T14:43:41.727Z,9908
2017-04-22T14:44:50.648Z,9304
2017-04-22T14:45:59.565Z,9144
2017-04-22T14:47:08.480Z,9200
2017-04-22T14:48:17.400Z,8996
2017-04-22T14:49:26.620Z,9616
2017-04-22T14:50:35.224Z,10764
2017-04-22T14:51:43.810Z,10560
2017-04-22T14:52:53.050Z,10220
2017-04-22T14:54:02.284Z,9332
2017-04-22T14:55:11.196Z,8452
2017-04-22T14:56:20.110Z,8036
2017-04-22T14:57:29.979Z,7856
2017-04-22T14:58:38.952Z,8980
2017-04-22T14:59:48.320Z,8316
2017-04-22T15:00:58.091Z,8396
2017-04-22T15:02:07.335Z,7812
2017-04-22T15:03:17.618Z,8424
2017-04-22T15:04:26.950Z,8760
2017-04-22T15:05:35.992Z,8236
2017-04-22T15:06:45.345Z,8660
2017-04-22T15:07:54.638Z,7784
2017-04-22T15:09:04.039Z,8336
2017-04-22T15:10:12.824Z,9452
2017-04-22T15:11:22.861Z,9132
2017-04-22T15:12:32.304Z,9336
2017-04-22T15:13:42.142Z,7748
2017-04-22T15:14:51.882Z,6508
2017-04-22T15:16:01.559Z,6176
2017-04-22T15:17:11.483Z,6008
2017-04-22T15:18:20.946Z,5768
2017-04-22T15:19:30.014Z,6324
2017-04-22T15:20:38.831Z,6484
2017-04-22T15:21:48.766Z,7028
2017-04-22T15:22:58.187Z,7468
2017-04-22T15:24:07.827Z,6576
2017-04-22T15:25:17.106Z,5936
2017-04-22T15:26:26.963Z,5636
2017-04-22T15:27:36.253Z,6016
2017-04-22T15:28:45.286Z,6880
2017-04-22T15:29:54.667Z,7312
2017-04-22T15:31:03.996Z,7536
2017-04-22T15:32:13.403Z,7480
2017-04-22T15:33:23.138Z,7356
2017-04-22T15:34:31.933Z,7864
2017-04-22T15:35:41.462Z,7572
2017-04-22T15:36:50.676Z,7012
2017-04-22T15:38:00.622Z,7156
2017-04-22T15:39:09.767Z,7180
2017-04-22T15:40:19.549Z,7780
2017-04-22T15:41:29.241Z,7620
2017-04-22T15:42:39.013Z,7592